sensor_id;sensor_type;location;lat;lon;timestamp;P1;durP1;ratioP1;P2;durP2;ratioP2
9228;SDS011;4649;42.644;23.284;2023-04-03T02:24:02;0.80;;;0.80;;
9228;SDS011;4649;42.644;23.284;2023-04-03T02:26:54;1.43;;;1.30;;
9228;SDS011;4649;42.644;23.284;2023-04-03T02:30:03;1.40;;;1.40;;
9228;SDS011;4649;42.644;23.284;2023-04-03T02:33:26;1.17;;;1.17;;
9228;SDS011;4649;42.644;23.284;2023-04-03T02:36:37;1.77;;;1.57;;
9228;SDS011;4649;42.644;23.284;2023-04-03T02:49:50;1.17;;;1.17;;
9228;SDS011;4649;42.644;23.284;2023-04-03T04:17:24;1.50;;;1.40;;
9228;SDS011;4649;42.644;23.284;2023-04-03T04:23:28;7.50;;;2.87;;
9228;SDS011;4649;42.644;23.284;2023-04-03T05:17:39;1.60;;;1.33;;
9228;SDS011;4649;42.644;23.284;2023-04-03T05:20:08;2.57;;;2.37;;
9228;SDS011;4649;42.644;23.284;2023-04-03T05:22:59;13.47;;;4.00;;
9228;SDS011;4649;42.644;23.284;2023-04-03T05:25:29;7.60;;;4.50;;
9228;SDS011;4649;42.644;23.284;2023-04-03T05:27:59;7.93;;;5.17;;
9228;SDS011;4649;42.644;23.284;2023-04-03T05:30:28;11.83;;;7.77;;
9228;SDS011;4649;42.644;23.284;2023-04-03T05:32:55;21.73;;;12.90;;
9228;SDS011;4649;42.644;23.284;2023-04-03T05:35:21;9.80;;;6.13;;
9228;SDS011;4649;42.644;23.284;2023-04-03T05:37:48;13.77;;;4.30;;
9228;SDS011;4649;42.644;23.284;2023-04-03T05:40:20;9.80;;;3.90;;
9228;SDS011;4649;42.644;23.284;2023-04-03T05:42:47;5.60;;;4.07;;
9228;SDS011;4649;42.644;23.284;2023-04-03T05:45:14;10.97;;;4.43;;
9228;SDS011;4649;42.644;23.284;2023-04-03T05:47:45;6.70;;;4.33;;
9228;SDS011;4649;42.644;23.284;2023-04-03T05:50:12;14.67;;;5.40;;
9228;SDS011;4649;42.644;23.284;2023-04-03T05:52:42;20.00;;;6.77;;
9228;SDS011;4649;42.644;23.284;2023-04-03T05:55:12;13.40;;;7.10;;
9228;SDS011;4649;42.644;23.284;2023-04-03T05:57:41;11.17;;;5.20;;
9228;SDS011;4649;42.644;23.284;2023-04-03T06:00:08;18.27;;;5.10;;
9228;SDS011;4649;42.644;23.284;2023-04-03T06:02:39;10.13;;;5.33;;
9228;SDS011;4649;42.644;23.284;2023-04-03T06:05:11;7.13;;;3.97;;
9228;SDS011;4649;42.644;23.284;2023-04-03T06:07:41;8.40;;;4.63;;
9228;SDS011;4649;42.644;23.284;2023-04-03T06:10:11;7.50;;;3.57;;
9228;SDS011;4649;42.644;23.284;2023-04-03T06:12:38;6.37;;;4.17;;
9228;SDS011;4649;42.644;23.284;2023-04-03T06:15:05;11.20;;;4.63;;
9228;SDS011;4649;42.644;23.284;2023-04-03T06:17:35;10.53;;;5.30;;
9228;SDS011;4649;42.644;23.284;2023-04-03T06:20:02;5.83;;;5.30;;
9228;SDS011;4649;42.644;23.284;2023-04-03T06:22:40;7.13;;;6.40;;
9228;SDS011;4649;42.644;23.284;2023-04-03T06:25:08;8.77;;;5.37;;
9228;SDS011;4649;42.644;23.284;2023-04-03T06:27:37;6.20;;;5.60;;
9228;SDS011;4649;42.644;23.284;2023-04-03T06:30:06;11.77;;;5.13;;
9228;SDS011;4649;42.644;23.284;2023-04-03T06:32:40;11.67;;;4.80;;
9228;SDS011;4649;42.644;23.284;2023-04-03T06:35:08;8.83;;;5.37;;
9228;SDS011;4649;42.644;23.284;2023-04-03T06:37:36;7.00;;;5.40;;
9228;SDS011;4649;42.644;23.284;2023-04-03T06:40:09;5.67;;;4.80;;
9228;SDS011;4649;42.644;23.284;2023-04-03T06:42:45;7.40;;;5.17;;
9228;SDS011;4649;42.644;23.284;2023-04-03T06:45:21;5.50;;;5.00;;
9228;SDS011;4649;42.644;23.284;2023-04-03T06:47:56;10.70;;;4.90;;
9228;SDS011;4649;42.644;23.284;2023-04-03T13:52:42;1.40;;;1.30;;
9228;SDS011;4649;42.644;23.284;2023-04-03T13:55:16;1.00;;;1.00;;
9228;SDS011;4649;42.644;23.284;2023-04-03T13:57:51;1.50;;;1.13;;
9228;SDS011;4649;42.644;23.284;2023-04-03T14:00:26;3.27;;;1.37;;
9228;SDS011;4649;42.644;23.284;2023-04-03T14:02:56;2.80;;;1.17;;
9228;SDS011;4649;42.644;23.284;2023-04-03T14:05:25;1.20;;;1.20;;
9228;SDS011;4649;42.644;23.284;2023-04-03T14:07:54;1.10;;;1.10;;
9228;SDS011;4649;42.644;23.284;2023-04-03T14:10:22;1.20;;;1.20;;
9228;SDS011;4649;42.644;23.284;2023-04-03T14:12:52;1.40;;;1.30;;
9228;SDS011;4649;42.644;23.284;2023-04-03T14:15:19;4.00;;;1.80;;
9228;SDS011;4649;42.644;23.284;2023-04-03T14:17:50;1.50;;;1.50;;
9228;SDS011;4649;42.644;23.284;2023-04-03T14:20:19;1.20;;;1.20;;
9228;SDS011;4649;42.644;23.284;2023-04-03T14:22:49;1.60;;;1.60;;
9228;SDS011;4649;42.644;23.284;2023-04-03T14:25:16;1.90;;;1.80;;
9228;SDS011;4649;42.644;23.284;2023-04-03T14:27:44;1.27;;;1.27;;
9228;SDS011;4649;42.644;23.284;2023-04-03T14:30:14;1.80;;;1.70;;
9228;SDS011;4649;42.644;23.284;2023-04-03T14:32:42;2.07;;;1.87;;
9228;SDS011;4649;42.644;23.284;2023-04-03T14:35:10;1.67;;;1.67;;
9228;SDS011;4649;42.644;23.284;2023-04-03T14:37:36;4.70;;;1.70;;
9228;SDS011;4649;42.644;23.284;2023-04-03T14:40:06;1.73;;;1.50;;
9228;SDS011;4649;42.644;23.284;2023-04-03T14:42:36;2.00;;;1.90;;
9228;SDS011;4649;42.644;23.284;2023-04-03T14:45:04;3.10;;;2.03;;
9228;SDS011;4649;42.644;23.284;2023-04-03T14:47:33;3.10;;;3.00;;
9228;SDS011;4649;42.644;23.284;2023-04-03T14:50:06;2.13;;;2.03;;
9228;SDS011;4649;42.644;23.284;2023-04-03T14:52:36;2.07;;;1.97;;
9228;SDS011;4649;42.644;23.284;2023-04-03T14:55:05;1.40;;;1.40;;
9228;SDS011;4649;42.644;23.284;2023-04-03T14:57:33;1.93;;;1.83;;
9228;SDS011;4649;42.644;23.284;2023-04-03T15:00:03;1.07;;;1.07;;
9228;SDS011;4649;42.644;23.284;2023-04-03T15:02:31;1.50;;;1.50;;
9228;SDS011;4649;42.644;23.284;2023-04-03T15:05:00;1.73;;;1.63;;
9228;SDS011;4649;42.644;23.284;2023-04-03T15:07:29;1.30;;;1.30;;
9228;SDS011;4649;42.644;23.284;2023-04-03T15:09:58;1.37;;;1.33;;
9228;SDS011;4649;42.644;23.284;2023-04-03T15:12:27;1.40;;;1.40;;
9228;SDS011;4649;42.644;23.284;2023-04-03T15:14:54;1.00;;;1.00;;
9228;SDS011;4649;42.644;23.284;2023-04-03T15:17:21;1.53;;;1.40;;
9228;SDS011;4649;42.644;23.284;2023-04-03T15:19:49;1.30;;;1.20;;
9228;SDS011;4649;42.644;23.284;2023-04-03T15:22:17;1.93;;;1.83;;
9228;SDS011;4649;42.644;23.284;2023-04-03T15:24:45;1.07;;;1.07;;
9228;SDS011;4649;42.644;23.284;2023-04-03T15:27:12;1.63;;;1.53;;
9228;SDS011;4649;42.644;23.284;2023-04-03T15:29:41;1.53;;;1.50;;
9228;SDS011;4649;42.644;23.284;2023-04-03T15:32:11;1.80;;;1.77;;
9228;SDS011;4649;42.644;23.284;2023-04-03T15:34:38;2.00;;;1.83;;
9228;SDS011;4649;42.644;23.284;2023-04-03T15:37:05;2.03;;;1.93;;
9228;SDS011;4649;42.644;23.284;2023-04-03T15:39:32;2.53;;;2.43;;
9228;SDS011;4649;42.644;23.284;2023-04-03T15:41:59;3.20;;;3.00;;
9228;SDS011;4649;42.644;23.284;2023-04-03T15:44:31;5.23;;;3.00;;
9228;SDS011;4649;42.644;23.284;2023-04-03T15:49:43;3.20;;;3.00;;
9228;SDS011;4649;42.644;23.284;2023-04-03T15:52:14;3.20;;;3.00;;
9228;SDS011;4649;42.644;23.284;2023-04-03T15:54:43;2.33;;;2.23;;
9228;SDS011;4649;42.644;23.284;2023-04-03T15:57:15;2.70;;;2.60;;
9228;SDS011;4649;42.644;23.284;2023-04-03T15:59:52;3.43;;;3.23;;
9228;SDS011;4649;42.644;23.284;2023-04-03T16:02:36;3.60;;;3.40;;
9228;SDS011;4649;42.644;23.284;2023-04-03T16:08:13;2.93;;;2.73;;
9228;SDS011;4649;42.644;23.284;2023-04-03T16:10:46;2.27;;;2.10;;
9228;SDS011;4649;42.644;23.284;2023-04-03T16:13:28;2.67;;;2.57;;
9228;SDS011;4649;42.644;23.284;2023-04-03T16:16:02;2.50;;;2.40;;
9228;SDS011;4649;42.644;23.284;2023-04-03T16:21:28;3.30;;;3.10;;
9228;SDS011;4649;42.644;23.284;2023-04-03T16:24:00;3.67;;;2.97;;
9228;SDS011;4649;42.644;23.284;2023-04-03T16:26:58;3.10;;;2.90;;
9228;SDS011;4649;42.644;23.284;2023-04-03T16:29:48;1.27;;;1.27;;
9228;SDS011;4649;42.644;23.284;2023-04-03T16:32:16;1.27;;;1.27;;
9228;SDS011;4649;42.644;23.284;2023-04-03T16:34:48;2.50;;;1.23;;
9228;SDS011;4649;42.644;23.284;2023-04-03T16:37:20;1.20;;;1.10;;
9228;SDS011;4649;42.644;23.284;2023-04-03T16:39:55;1.10;;;1.10;;
9228;SDS011;4649;42.644;23.284;2023-04-03T16:42:46;1.27;;;1.10;;
9228;SDS011;4649;42.644;23.284;2023-04-03T16:47:51;3.60;;;1.17;;
9228;SDS011;4649;42.644;23.284;2023-04-03T16:50:23;0.90;;;0.90;;
9228;SDS011;4649;42.644;23.284;2023-04-03T16:53:24;0.90;;;0.90;;
9228;SDS011;4649;42.644;23.284;2023-04-03T16:56:09;0.90;;;0.90;;
9228;SDS011;4649;42.644;23.284;2023-04-03T16:58:41;0.80;;;0.80;;
9228;SDS011;4649;42.644;23.284;2023-04-03T17:01:11;0.80;;;0.80;;
9228;SDS011;4649;42.644;23.284;2023-04-03T17:04:00;2.17;;;0.97;;
9228;SDS011;4649;42.644;23.284;2023-04-03T17:20:12;1.27;;;1.27;;
9228;SDS011;4649;42.644;23.284;2023-04-03T17:25:32;1.97;;;1.87;;
9228;SDS011;4649;42.644;23.284;2023-04-03T17:28:26;2.83;;;2.63;;
9228;SDS011;4649;42.644;23.284;2023-04-03T18:54:39;1.30;;;1.20;;
9228;SDS011;4649;42.644;23.284;2023-04-03T18:57:45;0.90;;;0.70;;
9228;SDS011;4649;42.644;23.284;2023-04-03T19:00:50;1.47;;;0.97;;
9228;SDS011;4649;42.644;23.284;2023-04-03T19:12:48;0.70;;;0.70;;
9228;SDS011;4649;42.644;23.284;2023-04-03T19:23:36;0.50;;;0.50;;
9228;SDS011;4649;42.644;23.284;2023-04-03T19:26:24;0.50;;;0.50;;
9228;SDS011;4649;42.644;23.284;2023-04-03T19:29:10;0.60;;;0.60;;
9228;SDS011;4649;42.644;23.284;2023-04-03T19:36:51;0.70;;;0.70;;
9228;SDS011;4649;42.644;23.284;2023-04-03T19:39:20;0.80;;;0.80;;
9228;SDS011;4649;42.644;23.284;2023-04-03T19:41:49;0.73;;;0.73;;
9228;SDS011;4649;42.644;23.284;2023-04-03T19:44:23;0.80;;;0.80;;
9228;SDS011;4649;42.644;23.284;2023-04-03T19:46:54;0.50;;;0.50;;
9228;SDS011;4649;42.644;23.284;2023-04-03T19:49:24;1.50;;;1.40;;
9228;SDS011;4649;42.644;23.284;2023-04-03T19:51:58;0.80;;;0.80;;
9228;SDS011;4649;42.644;23.284;2023-04-03T19:54:41;1.23;;;0.80;;
9228;SDS011;4649;42.644;23.284;2023-04-03T19:57:09;2.20;;;1.17;;
9228;SDS011;4649;42.644;23.284;2023-04-03T19:59:42;1.17;;;0.70;;
9228;SDS011;4649;42.644;23.284;2023-04-03T20:02:09;0.87;;;0.87;;
9228;SDS011;4649;42.644;23.284;2023-04-03T20:04:37;0.87;;;0.87;;
9228;SDS011;4649;42.644;23.284;2023-04-03T20:07:06;1.17;;;1.17;;
9228;SDS011;4649;42.644;23.284;2023-04-03T20:09:39;3.23;;;1.50;;
9228;SDS011;4649;42.644;23.284;2023-04-03T20:12:06;1.00;;;1.00;;
9228;SDS011;4649;42.644;23.284;2023-04-03T20:14:37;0.87;;;0.73;;
9228;SDS011;4649;42.644;23.284;2023-04-03T20:17:06;0.70;;;0.70;;
9228;SDS011;4649;42.644;23.284;2023-04-03T20:19:35;1.57;;;1.00;;
9228;SDS011;4649;42.644;23.284;2023-04-03T20:22:02;0.73;;;0.73;;
9228;SDS011;4649;42.644;23.284;2023-04-03T20:24:30;1.30;;;1.30;;
9228;SDS011;4649;42.644;23.284;2023-04-03T20:27:00;1.40;;;1.30;;
9228;SDS011;4649;42.644;23.284;2023-04-03T20:29:28;2.00;;;1.30;;
9228;SDS011;4649;42.644;23.284;2023-04-03T20:31:57;1.33;;;1.23;;
9228;SDS011;4649;42.644;23.284;2023-04-03T20:34:26;1.30;;;1.30;;
9228;SDS011;4649;42.644;23.284;2023-04-03T20:36:53;1.70;;;1.60;;
9228;SDS011;4649;42.644;23.284;2023-04-03T20:39:21;2.03;;;1.90;;
9228;SDS011;4649;42.644;23.284;2023-04-03T20:41:54;1.40;;;1.30;;
9228;SDS011;4649;42.644;23.284;2023-04-03T20:44:22;1.20;;;1.20;;
9228;SDS011;4649;42.644;23.284;2023-04-03T20:46:50;1.47;;;1.43;;
9228;SDS011;4649;42.644;23.284;2023-04-03T20:49:20;1.87;;;1.70;;
9228;SDS011;4649;42.644;23.284;2023-04-03T20:51:52;1.50;;;1.50;;
9228;SDS011;4649;42.644;23.284;2023-04-03T20:54:20;1.77;;;1.67;;
9228;SDS011;4649;42.644;23.284;2023-04-03T20:56:50;0.97;;;0.97;;
9228;SDS011;4649;42.644;23.284;2023-04-03T20:59:19;0.93;;;0.90;;
9228;SDS011;4649;42.644;23.284;2023-04-03T21:01:46;1.00;;;1.00;;
9228;SDS011;4649;42.644;23.284;2023-04-03T21:04:21;2.40;;;1.53;;
9228;SDS011;4649;42.644;23.284;2023-04-03T21:21:32;1.20;;;1.20;;
9228;SDS011;4649;42.644;23.284;2023-04-03T21:24:01;1.00;;;1.00;;
9228;SDS011;4649;42.644;23.284;2023-04-03T21:26:34;1.03;;;1.03;;
9228;SDS011;4649;42.644;23.284;2023-04-03T21:29:02;0.90;;;0.90;;
9228;SDS011;4649;42.644;23.284;2023-04-03T21:31:46;1.20;;;1.20;;
9228;SDS011;4649;42.644;23.284;2023-04-03T21:34:34;0.60;;;0.60;;
9228;SDS011;4649;42.644;23.284;2023-04-03T21:37:10;0.60;;;0.60;;
9228;SDS011;4649;42.644;23.284;2023-04-03T21:39:39;0.80;;;0.80;;
9228;SDS011;4649;42.644;23.284;2023-04-03T21:42:09;0.63;;;0.63;;
9228;SDS011;4649;42.644;23.284;2023-04-03T21:44:37;1.30;;;1.20;;
9228;SDS011;4649;42.644;23.284;2023-04-03T21:47:18;1.10;;;1.10;;
9228;SDS011;4649;42.644;23.284;2023-04-03T21:49:47;1.57;;;1.50;;
9228;SDS011;4649;42.644;23.284;2023-04-03T21:52:14;1.37;;;1.30;;
9228;SDS011;4649;42.644;23.284;2023-04-03T21:54:42;2.10;;;2.00;;
9228;SDS011;4649;42.644;23.284;2023-04-03T21:57:10;2.97;;;2.70;;
9228;SDS011;4649;42.644;23.284;2023-04-03T21:59:49;2.17;;;2.07;;
9228;SDS011;4649;42.644;23.284;2023-04-03T22:02:16;2.40;;;2.30;;
9228;SDS011;4649;42.644;23.284;2023-04-03T22:04:44;3.10;;;2.80;;
9228;SDS011;4649;42.644;23.284;2023-04-03T22:07:16;2.30;;;2.20;;
9228;SDS011;4649;42.644;23.284;2023-04-03T22:09:45;2.30;;;2.20;;
9228;SDS011;4649;42.644;23.284;2023-04-03T22:12:17;1.80;;;1.70;;
9228;SDS011;4649;42.644;23.284;2023-04-03T22:14:46;2.17;;;2.07;;
9228;SDS011;4649;42.644;23.284;2023-04-03T22:17:16;4.43;;;2.47;;
9228;SDS011;4649;42.644;23.284;2023-04-03T22:19:44;3.10;;;2.90;;
9228;SDS011;4649;42.644;23.284;2023-04-03T22:22:13;2.63;;;2.43;;
9228;SDS011;4649;42.644;23.284;2023-04-03T22:24:44;3.10;;;2.97;;
9228;SDS011;4649;42.644;23.284;2023-04-03T22:27:15;2.87;;;2.67;;
9228;SDS011;4649;42.644;23.284;2023-04-03T22:29:43;2.97;;;2.83;;
9228;SDS011;4649;42.644;23.284;2023-04-03T22:32:11;2.00;;;1.90;;
9228;SDS011;4649;42.644;23.284;2023-04-03T22:34:38;1.90;;;1.80;;
9228;SDS011;4649;42.644;23.284;2023-04-03T22:37:05;1.00;;;1.00;;
9228;SDS011;4649;42.644;23.284;2023-04-03T22:39:32;0.67;;;0.67;;
9228;SDS011;4649;42.644;23.284;2023-04-03T22:42:05;0.57;;;0.57;;
9228;SDS011;4649;42.644;23.284;2023-04-03T22:44:34;0.33;;;0.33;;
9228;SDS011;4649;42.644;23.284;2023-04-03T22:47:02;0.30;;;0.30;;
9228;SDS011;4649;42.644;23.284;2023-04-03T22:49:28;0.30;;;0.30;;
9228;SDS011;4649;42.644;23.284;2023-04-03T22:51:56;0.67;;;0.40;;
9228;SDS011;4649;42.644;23.284;2023-04-03T22:54:23;0.30;;;0.30;;
9228;SDS011;4649;42.644;23.284;2023-04-03T22:56:50;0.67;;;0.67;;
9228;SDS011;4649;42.644;23.284;2023-04-03T22:59:21;0.47;;;0.47;;
9228;SDS011;4649;42.644;23.284;2023-04-03T23:01:48;0.40;;;0.40;;
9228;SDS011;4649;42.644;23.284;2023-04-03T23:04:18;0.20;;;0.20;;
9228;SDS011;4649;42.644;23.284;2023-04-03T23:06:48;0.30;;;0.30;;
9228;SDS011;4649;42.644;23.284;2023-04-03T23:09:17;0.50;;;0.50;;
9228;SDS011;4649;42.644;23.284;2023-04-03T23:11:46;0.57;;;0.57;;
9228;SDS011;4649;42.644;23.284;2023-04-03T23:14:13;0.50;;;0.50;;
9228;SDS011;4649;42.644;23.284;2023-04-03T23:16:42;0.70;;;0.70;;
9228;SDS011;4649;42.644;23.284;2023-04-03T23:19:10;0.53;;;0.53;;
9228;SDS011;4649;42.644;23.284;2023-04-03T23:21:39;0.60;;;0.60;;
9228;SDS011;4649;42.644;23.284;2023-04-03T23:24:06;0.50;;;0.50;;
9228;SDS011;4649;42.644;23.284;2023-04-03T23:26:34;0.30;;;0.30;;
9228;SDS011;4649;42.644;23.284;2023-04-03T23:29:01;0.40;;;0.40;;
9228;SDS011;4649;42.644;23.284;2023-04-03T23:31:30;0.40;;;0.40;;
9228;SDS011;4649;42.644;23.284;2023-04-03T23:33:59;0.40;;;0.40;;
9228;SDS011;4649;42.644;23.284;2023-04-03T23:36:29;0.50;;;0.50;;
9228;SDS011;4649;42.644;23.284;2023-04-03T23:38:57;0.70;;;0.70;;
9228;SDS011;4649;42.644;23.284;2023-04-03T23:41:30;0.40;;;0.40;;
9228;SDS011;4649;42.644;23.284;2023-04-03T23:43:57;0.60;;;0.60;;
9228;SDS011;4649;42.644;23.284;2023-04-03T23:46:26;0.30;;;0.30;;
9228;SDS011;4649;42.644;23.284;2023-04-03T23:48:53;0.60;;;0.60;;
9228;SDS011;4649;42.644;23.284;2023-04-03T23:51:25;0.50;;;0.50;;
9228;SDS011;4649;42.644;23.284;2023-04-03T23:53:53;0.40;;;0.40;;
9228;SDS011;4649;42.644;23.284;2023-04-03T23:56:20;0.50;;;0.50;;
9228;SDS011;4649;42.644;23.284;2023-04-03T23:58:49;0.60;;;0.60;;
